createdAt,value
2023-04-09T00:02:03.907Z,100928.06
2023-04-09T00:04:30.463Z,100928.34
2023-04-09T00:06:56.959Z,100931.88
2023-04-09T00:09:23.448Z,100936.28
2023-04-09T00:11:49.897Z,100938.44
2023-04-09T00:14:16.312Z,100927.44
2023-04-09T00:16:42.797Z,100934.53
2023-04-09T00:19:09.321Z,100932.84
2023-04-09T00:21:36.050Z,100931.41
2023-04-09T00:24:02.470Z,100939.63
2023-04-09T00:26:28.858Z,100948.69
2023-04-09T00:28:55.549Z,100938.00
2023-04-09T00:31:22.112Z,100940.72
2023-04-09T00:33:49.895Z,100935.50
2023-04-09T00:36:16.648Z,100926.19
2023-04-09T00:38:51.056Z,100933.59
2023-04-09T00:41:17.985Z,100930.56
2023-04-09T00:43:44.446Z,100928.59
2023-04-09T00:46:12.029Z,100923.38
2023-04-09T00:48:38.913Z,100925.56
2023-04-09T00:51:05.849Z,100920.34
2023-04-09T00:53:32.291Z,100918.72
2023-04-09T00:55:58.678Z,100927.25
2023-04-09T00:58:25.315Z,100929.75
2023-04-09T01:00:51.817Z,100932.25
2023-04-09T01:03:18.415Z,100922.97
2023-04-09T01:06:07.681Z,100927.41
2023-04-09T01:09:05.306Z,100928.50
2023-04-09T01:11:39.154Z,100919.84
2023-04-09T01:14:19.078Z,100939.59
2023-04-09T01:16:48.017Z,100939.63
2023-04-09T01:19:32.768Z,100942.69
2023-04-09T01:22:00.428Z,100950.97
2023-04-09T01:24:47.329Z,100947.41
2023-04-09T01:27:14.742Z,100937.28
2023-04-09T01:29:52.952Z,100927.16
2023-04-09T01:32:20.688Z,100927.72
2023-04-09T01:34:47.955Z,100927.72
2023-04-09T01:37:15.397Z,100939.72
2023-04-09T01:39:42.162Z,100948.50
2023-04-09T01:42:11.238Z,100957.31
2023-04-09T01:44:41.788Z,100950.22
2023-04-09T01:47:10.166Z,100959.53
2023-04-09T01:49:39.123Z,100937.56
2023-04-09T01:52:06.131Z,100923.59
2023-04-09T01:54:33.016Z,100940.59
2023-04-09T01:56:59.510Z,100945.44
2023-04-09T01:59:26.279Z,100942.41
2023-04-09T02:02:01.877Z,100947.91
2023-04-09T02:04:33.731Z,100942.09
2023-04-09T02:07:07.054Z,100959.03
2023-04-09T02:09:36.675Z,100944.75
2023-04-09T02:12:04.533Z,100952.78
2023-04-09T02:14:33.013Z,100958.72
2023-04-09T02:17:00.543Z,100944.41
2023-04-09T02:19:46.920Z,100958.13
2023-04-09T02:22:14.423Z,100957.00
2023-04-09T02:24:41.513Z,100965.47
2023-04-09T02:27:08.195Z,100958.34
2023-04-09T02:29:35.679Z,100957.78
2023-04-09T02:32:04.368Z,100957.50
2023-04-09T02:34:31.116Z,100959.13
2023-04-09T02:36:58.660Z,100955.84
2023-04-09T02:39:28.784Z,100950.38
2023-04-09T02:41:56.257Z,100952.03
2023-04-09T02:44:22.779Z,100955.78
2023-04-09T02:46:51.424Z,100944.22
2023-04-09T02:49:18.039Z,100948.03
2023-04-09T02:51:44.478Z,100942.53
2023-04-09T02:54:11.207Z,100945.25
2023-04-09T02:56:38.212Z,100956.03
2023-04-09T02:59:04.585Z,100960.91
2023-04-09T03:01:31.101Z,100957.66
2023-04-09T03:03:57.692Z,100962.31
2023-04-09T03:06:24.263Z,100966.97
2023-04-09T03:08:50.872Z,100959.25
2023-04-09T03:11:17.492Z,100958.94
2023-04-09T03:13:43.928Z,100960.59
2023-04-09T03:16:10.566Z,100954.03
2023-04-09T03:18:38.023Z,100956.25
2023-04-09T03:21:08.639Z,100956.53
2023-04-09T03:23:35.350Z,100951.66
2023-04-09T03:26:05.942Z,100954.91
2023-04-09T03:28:32.377Z,100953.56
2023-04-09T03:30:58.823Z,100949.47
2023-04-09T03:33:28.125Z,100945.66
2023-04-09T03:35:54.581Z,100947.88
2023-04-09T03:38:21.202Z,100939.31
2023-04-09T03:40:47.827Z,100948.59
2023-04-09T03:43:14.360Z,100950.75
2023-04-09T03:45:41.848Z,100954.66
2023-04-09T03:48:08.251Z,100957.38
2023-04-09T03:50:41.920Z,100954.66
2023-04-09T03:53:08.513Z,100962.59
2023-04-09T03:55:37.576Z,100958.59
2023-04-09T03:58:04.026Z,100948.19
2023-04-09T04:00:30.581Z,100957.63
2023-04-09T04:02:57.196Z,100964.72
2023-04-09T04:05:25.322Z,100963.34
2023-04-09T04:07:51.914Z,100961.19
2023-04-09T04:10:18.331Z,100966.75
2023-04-09T04:12:44.819Z,100959.66
2023-04-09T04:15:11.599Z,100960.25
2023-04-09T04:17:38.009Z,100951.75
2023-04-09T04:20:06.181Z,100955.63
2023-04-09T04:22:34.151Z,100961.94
2023-04-09T04:25:00.570Z,100955.03
2023-04-09T04:27:26.957Z,100950.69
2023-04-09T04:29:53.416Z,100961.41
2023-04-09T04:32:19.813Z,100962.84
2023-04-09T04:34:49.987Z,100959.59
2023-04-09T04:37:16.620Z,100949.53
2023-04-09T04:39:43.082Z,100953.63
2023-04-09T04:42:09.652Z,100954.75
2023-04-09T04:44:36.069Z,100958.59
2023-04-09T04:47:02.506Z,100964.78
2023-04-09T04:49:30.345Z,100971.94
2023-04-09T04:51:56.941Z,100972.84
2023-04-09T04:54:23.355Z,100970.94
2023-04-09T04:56:49.784Z,100969.88
2023-04-09T04:59:16.220Z,100973.78
2023-04-09T05:01:42.859Z,100973.72
2023-04-09T05:04:09.380Z,100975.16
2023-04-09T05:06:35.816Z,100972.22
2023-04-09T05:09:02.331Z,100981.75
2023-04-09T05:11:29.038Z,100988.91
2023-04-09T05:13:55.449Z,100984.81
2023-04-09T05:16:22.079Z,100989.53
2023-04-09T05:18:48.539Z,100983.56
2023-04-09T05:21:14.943Z,100977.25
2023-04-09T05:23:41.460Z,100976.16
2023-04-09T05:26:08.262Z,100979.25
2023-04-09T05:28:35.008Z,100984.47
2023-04-09T05:31:01.713Z,100975.44
2023-04-09T05:33:28.565Z,100975.94
2023-04-09T05:35:55.492Z,100969.72
2023-04-09T05:38:22.256Z,100973.88
2023-04-09T05:40:49.149Z,100981.88
2023-04-09T05:43:15.876Z,100981.69
2023-04-09T05:45:42.466Z,100975.97
2023-04-09T05:48:11.855Z,100974.59
2023-04-09T05:50:47.568Z,100984.91
2023-04-09T05:53:20.872Z,100986.19
2023-04-09T05:55:49.199Z,100993.47
2023-04-09T05:58:21.818Z,101001.28
2023-04-09T06:00:48.257Z,100998.84
2023-04-09T06:03:14.901Z,100985.44
2023-04-09T06:05:41.482Z,100991.13
2023-04-09T06:08:07.861Z,100977.81
2023-04-09T06:10:34.873Z,100978.66
2023-04-09T06:13:03.490Z,100984.34
2023-04-09T06:15:30.053Z,100981.59
2023-04-09T06:17:58.915Z,100975.00
2023-04-09T06:20:25.848Z,100976.16
2023-04-09T06:22:52.316Z,100969.56
2023-04-09T06:25:18.806Z,100966.63
2023-04-09T06:27:45.208Z,100979.09
2023-04-09T06:30:11.889Z,100977.19
2023-04-09T06:32:51.064Z,100974.69
2023-04-09T06:35:20.585Z,100972.44
2023-04-09T06:37:48.044Z,100975.66
2023-04-09T06:40:14.768Z,100980.16
2023-04-09T06:42:41.305Z,100983.03
2023-04-09T06:45:09.228Z,100987.88
2023-04-09T06:47:36.266Z,100979.53
2023-04-09T06:50:03.947Z,100980.75
2023-04-09T06:52:30.504Z,100983.84
2023-04-09T06:54:56.924Z,100985.75
2023-04-09T06:57:23.444Z,100990.59
2023-04-09T06:59:49.870Z,100989.81
2023-04-09T07:02:16.836Z,100986.63
2023-04-09T07:04:43.313Z,100989.09
2023-04-09T07:07:09.931Z,100987.41
2023-04-09T07:09:36.561Z,100991.50
2023-04-09T07:12:03.027Z,100989.63
2023-04-09T07:14:29.868Z,100994.66
2023-04-09T07:16:56.247Z,100994.38
2023-04-09T07:19:22.621Z,100998.66
2023-04-09T07:21:50.930Z,100990.75
2023-04-09T07:24:17.327Z,100999.41
2023-04-09T07:26:44.062Z,101002.00
2023-04-09T07:29:10.652Z,101002.47
2023-04-09T07:31:37.122Z,100995.16
2023-04-09T07:34:03.770Z,100996.63
2023-04-09T07:36:31.800Z,100987.59
2023-04-09T07:38:58.390Z,100991.81
2023-04-09T07:41:24.902Z,100987.81
2023-04-09T07:43:52.048Z,100993.38
2023-04-09T07:46:20.679Z,100988.94
2023-04-09T07:48:50.126Z,100993.31
2023-04-09T07:51:17.170Z,100994.03
2023-04-09T07:53:43.978Z,100996.13
2023-04-09T07:56:10.765Z,100998.78
2023-04-09T07:58:40.597Z,100997.75
2023-04-09T08:01:08.773Z,100995.06
2023-04-09T08:03:36.721Z,100994.28
2023-04-09T08:06:03.690Z,100994.03
2023-04-09T08:08:30.957Z,100994.78
2023-04-09T08:10:57.433Z,100993.09
2023-04-09T08:13:25.298Z,100991.50
2023-04-09T08:15:51.740Z,100985.66
2023-04-09T08:18:18.604Z,100979.72
2023-04-09T08:20:48.064Z,100981.97
2023-04-09T08:23:14.536Z,100988.59
2023-04-09T08:25:40.983Z,100995.00
2023-04-09T08:28:08.334Z,100990.09
2023-04-09T08:30:35.030Z,100985.34
2023-04-09T08:33:02.188Z,100984.06
2023-04-09T08:35:32.464Z,100994.97
2023-04-09T08:37:59.634Z,100994.63
2023-04-09T08:40:26.203Z,101000.38
2023-04-09T08:42:56.818Z,101008.97
2023-04-09T08:45:24.159Z,101008.22
2023-04-09T08:47:51.437Z,101009.13
2023-04-09T08:50:18.120Z,101010.63
2023-04-09T08:52:46.955Z,100996.00
2023-04-09T08:55:13.521Z,100993.28
2023-04-09T08:57:40.580Z,100996.66
2023-04-09T09:00:08.139Z,100985.25
2023-04-09T09:02:35.733Z,100984.53
2023-04-09T09:05:02.886Z,100992.44
2023-04-09T09:07:29.770Z,100989.97
2023-04-09T09:09:58.759Z,100988.28
2023-04-09T09:12:39.349Z,100992.91
2023-04-09T09:15:28.647Z,101003.75
2023-04-09T09:17:56.928Z,100998.88
2023-04-09T09:20:24.089Z,100998.63
2023-04-09T09:22:54.631Z,100992.28
2023-04-09T09:25:26.150Z,100996.66
2023-04-09T09:27:54.497Z,100992.06
2023-04-09T09:30:22.541Z,100989.25
2023-04-09T09:32:55.585Z,100987.47
2023-04-09T09:35:23.354Z,100978.72
2023-04-09T09:38:01.675Z,100986.00
2023-04-09T09:40:28.829Z,100976.22
2023-04-09T09:42:57.970Z,100979.81
2023-04-09T09:45:25.671Z,100976.25
2023-04-09T09:47:53.585Z,100979.00
2023-04-09T09:50:24.177Z,100980.16
2023-04-09T09:52:50.896Z,100984.47
2023-04-09T09:55:18.221Z,100978.03
2023-04-09T09:57:46.002Z,100971.84
2023-04-09T10:00:14.906Z,100972.81
2023-04-09T10:02:45.098Z,100966.09
2023-04-09T10:05:11.829Z,100965.94
2023-04-09T10:07:39.136Z,100962.22
2023-04-09T10:10:06.742Z,100961.00
2023-04-09T10:12:33.944Z,100960.22
2023-04-09T10:15:04.652Z,100964.78
2023-04-09T10:17:32.325Z,100960.03
2023-04-09T10:20:07.172Z,100956.84
2023-04-09T10:22:36.400Z,100959.47
2023-04-09T10:25:04.513Z,100956.44
2023-04-09T10:27:31.181Z,100956.38
2023-04-09T10:30:00.039Z,100955.28
2023-04-09T10:32:28.348Z,100947.88
2023-04-09T10:34:59.504Z,100959.28
2023-04-09T10:37:27.275Z,100949.81
2023-04-09T10:39:54.127Z,100936.53
2023-04-09T10:42:24.787Z,100935.66
2023-04-09T10:45:15.095Z,100932.59
2023-04-09T10:47:43.357Z,100931.06
2023-04-09T10:50:16.674Z,100922.44
2023-04-09T10:52:44.446Z,100918.97
2023-04-09T10:55:30.665Z,100925.81
2023-04-09T10:57:58.324Z,100920.41
2023-04-09T11:00:24.835Z,100919.25
2023-04-09T11:03:04.568Z,100919.25
2023-04-09T11:05:34.223Z,100927.47
2023-04-09T11:08:04.690Z,100923.59
2023-04-09T11:10:32.608Z,100920.38
2023-04-09T11:13:00.434Z,100924.50
2023-04-09T11:15:27.350Z,100923.81
2023-04-09T11:17:54.214Z,100912.59
2023-04-09T11:20:23.405Z,100913.56
2023-04-09T11:22:51.619Z,100918.28
2023-04-09T11:25:26.444Z,100919.75
2023-04-09T11:27:53.477Z,100915.13
2023-04-09T11:30:20.282Z,100916.81
2023-04-09T11:32:48.073Z,100919.81
2023-04-09T11:35:22.398Z,100913.66
2023-04-09T11:37:50.082Z,100911.16
2023-04-09T11:40:18.331Z,100919.09
2023-04-09T11:42:46.427Z,100916.59
2023-04-09T11:45:14.337Z,100917.13
2023-04-09T11:47:41.875Z,100915.41
2023-04-09T11:50:09.835Z,100905.66
2023-04-09T11:52:37.015Z,100903.63
2023-04-09T11:55:04.939Z,100915.09
2023-04-09T11:57:40.053Z,100908.50
2023-04-09T12:00:09.161Z,100916.63
2023-04-09T12:02:46.598Z,100910.75
2023-04-09T12:05:24.687Z,100908.03
2023-04-09T12:07:56.199Z,100901.47
2023-04-09T12:10:27.444Z,100907.22
2023-04-09T12:12:53.823Z,100912.31
2023-04-09T12:15:25.452Z,100910.03
2023-04-09T12:17:57.182Z,100919.47
2023-04-09T12:20:37.304Z,100911.38
2023-04-09T12:23:05.182Z,100908.94
2023-04-09T12:25:32.612Z,100907.97
2023-04-09T12:27:59.452Z,100913.56
2023-04-09T12:30:26.198Z,100924.16
2023-04-09T12:32:53.644Z,100909.56
2023-04-09T12:35:20.930Z,100916.03
2023-04-09T12:37:47.451Z,100915.34
2023-04-09T12:40:14.135Z,100917.28
2023-04-09T12:42:41.850Z,100917.22
2023-04-09T12:45:10.134Z,100911.38
2023-04-09T12:47:36.715Z,100905.84
2023-04-09T12:50:07.734Z,100906.53
2023-04-09T12:52:34.778Z,100898.41
2023-04-09T12:55:02.213Z,100901.22
2023-04-09T12:57:28.956Z,100890.03
2023-04-09T12:59:55.425Z,100897.69
2023-04-09T13:02:22.457Z,100888.00
2023-04-09T13:04:49.260Z,100891.69
2023-04-09T13:07:17.471Z,100890.88
2023-04-09T13:09:45.274Z,100894.13
2023-04-09T13:12:12.601Z,100885.16
2023-04-09T13:14:39.974Z,100889.94
2023-04-09T13:17:06.692Z,100880.44
2023-04-09T13:19:33.401Z,100879.72
2023-04-09T13:22:00.527Z,100880.63
2023-04-09T13:24:27.343Z,100873.56
2023-04-09T13:26:54.089Z,100869.78
2023-04-09T13:29:20.482Z,100863.97
2023-04-09T13:31:46.885Z,100868.78
2023-04-09T13:34:13.366Z,100857.06
2023-04-09T13:36:43.818Z,100863.22
2023-04-09T13:39:10.348Z,100860.63
2023-04-09T13:41:37.675Z,100855.56
2023-04-09T13:44:05.077Z,100859.00
2023-04-09T13:46:38.685Z,100860.69
2023-04-09T13:49:07.464Z,100862.28
2023-04-09T13:51:34.171Z,100850.47
2023-04-09T13:54:00.591Z,100850.81
2023-04-09T13:56:27.519Z,100847.81
2023-04-09T13:58:55.386Z,100844.41
2023-04-09T14:01:22.315Z,100846.13
2023-04-09T14:03:49.890Z,100839.69
2023-04-09T14:06:16.339Z,100845.63
2023-04-09T14:08:42.784Z,100840.63
2023-04-09T14:11:13.987Z,100845.09
2023-04-09T14:13:41.662Z,100838.59
2023-04-09T14:16:08.652Z,100836.75
2023-04-09T14:18:36.341Z,100835.72
2023-04-09T14:21:02.847Z,100834.53
2023-04-09T14:23:29.425Z,100826.41
2023-04-09T14:25:55.999Z,100833.31
2023-04-09T14:28:22.580Z,100841.66
2023-04-09T14:30:49.013Z,100833.31
2023-04-09T14:33:16.511Z,100836.63
2023-04-09T14:35:43.118Z,100832.84
2023-04-09T14:38:09.952Z,100836.50
2023-04-09T14:40:36.682Z,100821.19
2023-04-09T14:43:03.574Z,100822.75
2023-04-09T14:45:30.941Z,100826.31
2023-04-09T14:47:57.693Z,100818.63
2023-04-09T14:50:24.184Z,100815.69
2023-04-09T14:52:50.764Z,100827.75
2023-04-09T14:55:17.334Z,100818.09
2023-04-09T14:57:44.015Z,100823.00
2023-04-09T15:00:12.108Z,100816.38
2023-04-09T15:02:39.142Z,100809.94
2023-04-09T15:05:06.237Z,100811.06
2023-04-09T15:07:33.877Z,100824.13
2023-04-09T15:10:00.382Z,100807.41
2023-04-09T15:12:28.248Z,100800.41
2023-04-09T15:14:56.536Z,100805.28
2023-04-09T15:17:25.253Z,100804.84
2023-04-09T15:19:52.635Z,100803.63
2023-04-09T15:22:19.458Z,100803.00
2023-04-09T15:24:45.960Z,100803.53
2023-04-09T15:27:12.350Z,100805.28
2023-04-09T15:29:39.231Z,100806.25
2023-04-09T15:32:06.790Z,100800.16
2023-04-09T15:34:33.296Z,100797.63
2023-04-09T15:36:59.719Z,100797.00
2023-04-09T15:39:28.361Z,100797.25
2023-04-09T15:41:57.569Z,100800.78
2023-04-09T15:44:24.956Z,100792.06
2023-04-09T15:46:53.321Z,100797.03
2023-04-09T15:49:19.816Z,100800.25
2023-04-09T15:51:46.347Z,100798.22
2023-04-09T15:54:12.810Z,100800.66
2023-04-09T15:56:40.420Z,100802.91
2023-04-09T15:59:08.349Z,100800.47
2023-04-09T16:01:36.093Z,100803.31
2023-04-09T16:04:04.922Z,100805.22
2023-04-09T16:06:31.807Z,100807.09
2023-04-09T16:08:58.457Z,100816.34
2023-04-09T16:11:24.906Z,100803.97
2023-04-09T16:13:52.346Z,100805.56
2023-04-09T16:16:19.042Z,100804.41
2023-04-09T16:18:46.605Z,100806.03
2023-04-09T16:21:13.099Z,100805.69
2023-04-09T16:23:39.900Z,100797.06
2023-04-09T16:26:07.010Z,100799.50
2023-04-09T16:28:33.594Z,100798.69
2023-04-09T16:30:59.987Z,100803.09
2023-04-09T16:33:27.664Z,100810.69
2023-04-09T16:35:54.094Z,100800.75
2023-04-09T16:38:20.713Z,100811.47
2023-04-09T16:40:47.120Z,100802.38
2023-04-09T16:43:13.857Z,100808.09
2023-04-09T16:45:40.416Z,100805.75
2023-04-09T16:48:12.024Z,100799.88
2023-04-09T16:50:39.815Z,100805.66
2023-04-09T16:53:06.567Z,100798.53
2023-04-09T16:55:34.333Z,100808.09
2023-04-09T16:58:01.034Z,100797.53
2023-04-09T17:00:27.624Z,100799.88
2023-04-09T17:02:55.668Z,100794.38
2023-04-09T17:05:22.454Z,100805.56
2023-04-09T17:07:49.161Z,100810.13
2023-04-09T17:10:15.807Z,100806.16
2023-04-09T17:12:42.730Z,100813.59
2023-04-09T17:15:10.135Z,100806.38
2023-04-09T17:17:37.363Z,100804.97
2023-04-09T17:20:05.713Z,100811.38
2023-04-09T17:22:32.293Z,100805.78
2023-04-09T17:24:58.768Z,100811.16
2023-04-09T17:27:25.349Z,100818.69
2023-04-09T17:29:51.821Z,100815.44
2023-04-09T17:32:18.763Z,100818.31
2023-04-09T17:34:49.443Z,100806.78
2023-04-09T17:37:16.216Z,100815.38
2023-04-09T17:39:43.028Z,100816.00
2023-04-09T17:42:11.681Z,100817.13
2023-04-09T17:44:38.696Z,100820.25
2023-04-09T17:47:06.810Z,100822.94
2023-04-09T17:49:33.382Z,100824.03
2023-04-09T17:52:00.195Z,100818.00
2023-04-09T17:54:26.609Z,100824.34
2023-04-09T17:56:53.047Z,100822.91
2023-04-09T17:59:19.534Z,100819.84
2023-04-09T18:01:46.159Z,100820.53
2023-04-09T18:04:12.900Z,100822.34
2023-04-09T18:06:40.869Z,100823.25
2023-04-09T18:09:07.620Z,100830.53
2023-04-09T18:11:34.108Z,100828.47
2023-04-09T18:14:00.850Z,100824.66
2023-04-09T18:16:28.300Z,100823.47
2023-04-09T18:18:55.011Z,100825.94
2023-04-09T18:21:22.042Z,100829.53
2023-04-09T18:23:48.684Z,100826.59
2023-04-09T18:26:15.816Z,100839.06
2023-04-09T18:28:42.480Z,100834.06
2023-04-09T18:31:11.204Z,100840.66
2023-04-09T18:33:37.910Z,100842.47
2023-04-09T18:36:04.550Z,100848.41
2023-04-09T18:38:31.561Z,100849.19
2023-04-09T18:40:58.188Z,100852.47
2023-04-09T18:43:25.891Z,100855.25
2023-04-09T18:45:52.493Z,100856.56
2023-04-09T18:48:19.256Z,100859.84
2023-04-09T18:50:46.111Z,100853.78
2023-04-09T18:53:13.735Z,100865.78
2023-04-09T18:55:40.276Z,100867.09
2023-04-09T18:58:12.877Z,100865.94
2023-04-09T19:00:39.588Z,100858.72
2023-04-09T19:03:06.161Z,100850.22
2023-04-09T19:05:33.405Z,100860.34
2023-04-09T19:08:01.349Z,100853.34
2023-04-09T19:10:28.564Z,100851.03
2023-04-09T19:12:55.533Z,100852.84
2023-04-09T19:15:26.246Z,100854.47
2023-04-09T19:17:52.934Z,100856.72
2023-04-09T19:20:19.667Z,100855.19
2023-04-09T19:22:47.980Z,100855.56
2023-04-09T19:25:15.644Z,100850.97
2023-04-09T19:27:42.013Z,100850.63
2023-04-09T19:30:09.460Z,100858.28
2023-04-09T19:32:36.714Z,100855.16
2023-04-09T19:35:03.320Z,100860.09
2023-04-09T19:37:30.437Z,100856.66
2023-04-09T19:39:58.333Z,100868.22
2023-04-09T19:42:25.333Z,100860.69
2023-04-09T19:44:51.953Z,100856.00
2023-04-09T19:47:18.406Z,100858.72
2023-04-09T19:49:44.992Z,100847.16
2023-04-09T19:52:11.569Z,100855.50
2023-04-09T19:54:38.002Z,100851.34
2023-04-09T19:57:04.594Z,100847.75
2023-04-09T19:59:36.138Z,100847.06
2023-04-09T20:02:03.210Z,100853.31
2023-04-09T20:04:31.045Z,100851.06
2023-04-09T20:06:57.678Z,100856.13
2023-04-09T20:09:26.329Z,100851.97
2023-04-09T20:11:55.755Z,100855.53
2023-04-09T20:14:22.171Z,100856.78
2023-04-09T20:16:49.593Z,100863.88
2023-04-09T20:19:16.178Z,100856.97
2023-04-09T20:21:43.669Z,100863.09
2023-04-09T20:24:10.565Z,100860.78
2023-04-09T20:26:37.098Z,100858.00
2023-04-09T20:29:03.528Z,100852.56
2023-04-09T20:31:30.905Z,100857.81
2023-04-09T20:33:57.447Z,100850.38
2023-04-09T20:36:24.991Z,100854.47
2023-04-09T20:38:51.830Z,100853.84
2023-04-09T20:41:18.427Z,100857.38
2023-04-09T20:43:44.854Z,100855.53
2023-04-09T20:46:11.908Z,100853.28
2023-04-09T20:48:39.498Z,100860.19
2023-04-09T20:51:12.772Z,100853.44
2023-04-09T20:53:39.205Z,100850.47
2023-04-09T20:56:06.217Z,100850.03
2023-04-09T20:58:33.597Z,100851.78
2023-04-09T21:01:05.189Z,100858.88
2023-04-09T21:03:32.384Z,100861.47
2023-04-09T21:05:58.906Z,100859.09
2023-04-09T21:08:25.387Z,100856.63
2023-04-09T21:10:51.737Z,100869.34
2023-04-09T21:13:18.205Z,100866.78
2023-04-09T21:15:44.659Z,100867.59
2023-04-09T21:18:11.143Z,100862.16
2023-04-09T21:20:42.618Z,100855.69
2023-04-09T21:23:10.329Z,100856.41
2023-04-09T21:25:38.167Z,100862.34
2023-04-09T21:28:06.102Z,100867.88
2023-04-09T21:30:34.451Z,100866.13
2023-04-09T21:33:06.014Z,100867.97
2023-04-09T21:35:32.877Z,100872.06
2023-04-09T21:37:59.439Z,100877.22
2023-04-09T21:40:25.885Z,100879.56
2023-04-09T21:42:52.395Z,100874.00
2023-04-09T21:45:19.053Z,100874.19
2023-04-09T21:47:46.814Z,100866.38
2023-04-09T21:50:13.755Z,100869.47
2023-04-09T21:52:40.492Z,100874.19
2023-04-09T21:55:07.598Z,100868.47
2023-04-09T21:57:34.119Z,100872.69
2023-04-09T22:00:00.727Z,100873.31
2023-04-09T22:02:28.613Z,100873.81
2023-04-09T22:04:55.623Z,100870.47
2023-04-09T22:07:22.426Z,100873.75
2023-04-09T22:09:48.879Z,100876.72
2023-04-09T22:12:15.830Z,100864.41
2023-04-09T22:14:42.211Z,100866.16
2023-04-09T22:17:08.799Z,100861.53
2023-04-09T22:19:35.232Z,100861.25
2023-04-09T22:22:01.886Z,100868.94
2023-04-09T22:24:30.071Z,100868.03
2023-04-09T22:26:58.836Z,100872.22
2023-04-09T22:29:26.302Z,100875.91
2023-04-09T22:31:52.687Z,100878.59
2023-04-09T22:34:21.508Z,100874.38
2023-04-09T22:36:48.580Z,100872.59
2023-04-09T22:39:15.108Z,100877.19
2023-04-09T22:41:41.570Z,100868.16
2023-04-09T22:44:09.497Z,100873.28
2023-04-09T22:46:36.642Z,100868.34
2023-04-09T22:49:05.260Z,100869.47
2023-04-09T22:51:34.677Z,100870.25
2023-04-09T22:54:02.701Z,100869.53
2023-04-09T22:56:31.538Z,100863.63
2023-04-09T22:58:57.943Z,100869.53
2023-04-09T23:01:24.616Z,100873.56
2023-04-09T23:03:51.916Z,100876.94
2023-04-09T23:06:18.942Z,100878.72
2023-04-09T23:08:45.740Z,100881.28
2023-04-09T23:11:12.234Z,100886.84
2023-04-09T23:13:38.814Z,100876.53
2023-04-09T23:16:11.097Z,100870.28
2023-04-09T23:18:37.870Z,100872.13
2023-04-09T23:21:11.471Z,100878.25
2023-04-09T23:23:38.824Z,100869.66
2023-04-09T23:26:06.245Z,100863.69
2023-04-09T23:28:34.152Z,100860.19
2023-04-09T23:31:01.323Z,100855.63
2023-04-09T23:33:29.109Z,100863.47
2023-04-09T23:35:55.759Z,100856.06
2023-04-09T23:38:23.746Z,100857.75
2023-04-09T23:40:50.325Z,100860.00
2023-04-09T23:43:16.753Z,100862.53
2023-04-09T23:45:46.572Z,100866.47
2023-04-09T23:48:13.503Z,100868.94
2023-04-09T23:50:45.178Z,100865.66
2023-04-09T23:53:11.986Z,100873.41
2023-04-09T23:55:40.992Z,100869.25
2023-04-09T23:58:08.512Z,100872.13
